sensor_id;sensor_type;location;lat;lon;timestamp;pressure;altitude;pressure_sealevel;temperature;humidity
63190;BME280;49286;44.460;26.114;2024-01-07T00:01:34;99518.69;;;4.81;100.00
63190;BME280;49286;44.460;26.114;2024-01-07T00:04:00;99492.50;;;4.57;100.00
63190;BME280;49286;44.460;26.114;2024-01-07T00:06:25;99521.03;;;4.52;100.00
63190;BME280;49286;44.460;26.114;2024-01-07T00:08:51;99535.69;;;4.46;100.00
63190;BME280;49286;44.460;26.114;2024-01-07T00:11:16;99489.41;;;4.09;100.00
63190;BME280;49286;44.460;26.114;2024-01-07T00:13:42;99456.47;;;4.04;100.00
63190;BME280;49286;44.460;26.114;2024-01-07T00:16:07;99522.97;;;4.73;100.00
63190;BME280;49286;44.460;26.114;2024-01-07T00:18:33;99486.91;;;4.17;100.00
63190;BME280;49286;44.460;26.114;2024-01-07T00:20:58;99420.41;;;3.53;100.00
63190;BME280;49286;44.460;26.114;2024-01-07T00:23:24;99394.13;;;3.24;100.00
63190;BME280;49286;44.460;26.114;2024-01-07T00:25:49;99515.09;;;3.85;100.00
63190;BME280;49286;44.460;26.114;2024-01-07T00:28:15;99502.81;;;3.73;100.00
63190;BME280;49286;44.460;26.114;2024-01-07T00:30:41;99488.19;;;3.78;100.00
63190;BME280;49286;44.460;26.114;2024-01-07T00:33:06;99514.22;;;3.84;100.00
63190;BME280;49286;44.460;26.114;2024-01-07T00:35:33;99490.75;;;3.75;100.00
63190;BME280;49286;44.460;26.114;2024-01-07T00:37:59;99394.94;;;3.20;100.00
63190;BME280;49286;44.460;26.114;2024-01-07T00:40:25;99426.28;;;3.35;100.00
63190;BME280;49286;44.460;26.114;2024-01-07T00:42:51;99418.28;;;3.19;100.00
63190;BME280;49286;44.460;26.114;2024-01-07T00:45:17;99530.50;;;3.74;100.00
63190;BME280;49286;44.460;26.114;2024-01-07T00:47:43;99481.97;;;3.67;100.00
63190;BME280;49286;44.460;26.114;2024-01-07T00:50:08;99517.00;;;4.02;100.00
63190;BME280;49286;44.460;26.114;2024-01-07T00:52:34;99391.31;;;3.06;100.00
63190;BME280;49286;44.460;26.114;2024-01-07T00:55:03;99403.56;;;3.17;100.00
63190;BME280;49286;44.460;26.114;2024-01-07T00:57:29;99509.28;;;4.06;100.00
63190;BME280;49286;44.460;26.114;2024-01-07T00:59:56;99501.19;;;3.81;100.00
63190;BME280;49286;44.460;26.114;2024-01-07T01:02:21;99502.78;;;3.71;100.00
63190;BME280;49286;44.460;26.114;2024-01-07T01:04:47;99514.88;;;3.69;100.00
63190;BME280;49286;44.460;26.114;2024-01-07T01:07:14;99485.09;;;3.40;100.00
63190;BME280;49286;44.460;26.114;2024-01-07T01:09:39;99408.31;;;2.87;100.00
63190;BME280;49286;44.460;26.114;2024-01-07T01:12:05;99499.44;;;3.81;100.00
63190;BME280;49286;44.460;26.114;2024-01-07T01:14:30;99468.06;;;3.58;100.00
63190;BME280;49286;44.460;26.114;2024-01-07T01:16:56;99484.66;;;3.73;100.00
63190;BME280;49286;44.460;26.114;2024-01-07T01:19:21;99374.06;;;3.08;100.00
63190;BME280;49286;44.460;26.114;2024-01-07T01:21:47;99374.78;;;2.98;100.00
63190;BME280;49286;44.460;26.114;2024-01-07T01:24:13;99433.97;;;3.32;100.00
63190;BME280;49286;44.460;26.114;2024-01-07T01:26:38;99498.72;;;3.89;100.00
63190;BME280;49286;44.460;26.114;2024-01-07T01:29:04;99402.25;;;3.50;100.00
63190;BME280;49286;44.460;26.114;2024-01-07T01:31:30;99491.09;;;4.06;100.00
63190;BME280;49286;44.460;26.114;2024-01-07T01:33:56;99444.63;;;3.52;100.00
63190;BME280;49286;44.460;26.114;2024-01-07T01:36:21;99385.16;;;2.98;100.00
63190;BME280;49286;44.460;26.114;2024-01-07T01:38:47;99337.34;;;2.74;100.00
63190;BME280;49286;44.460;26.114;2024-01-07T01:41:18;99375.88;;;3.15;100.00
63190;BME280;49286;44.460;26.114;2024-01-07T01:43:44;99380.13;;;3.10;100.00
63190;BME280;49286;44.460;26.114;2024-01-07T01:46:09;99479.41;;;3.70;100.00
63190;BME280;49286;44.460;26.114;2024-01-07T01:48:38;99459.78;;;3.89;100.00
63190;BME280;49286;44.460;26.114;2024-01-07T01:51:04;99382.97;;;3.28;100.00
63190;BME280;49286;44.460;26.114;2024-01-07T01:53:30;99448.09;;;3.51;100.00
63190;BME280;49286;44.460;26.114;2024-01-07T01:55:57;99370.56;;;3.06;100.00
63190;BME280;49286;44.460;26.114;2024-01-07T01:58:28;99432.41;;;3.42;100.00
63190;BME280;49286;44.460;26.114;2024-01-07T02:00:54;99339.03;;;2.73;100.00
63190;BME280;49286;44.460;26.114;2024-01-07T02:03:20;99433.88;;;3.23;100.00
63190;BME280;49286;44.460;26.114;2024-01-07T02:05:48;99365.03;;;2.80;100.00
63190;BME280;49286;44.460;26.114;2024-01-07T02:08:13;99245.81;;;2.11;100.00
63190;BME280;49286;44.460;26.114;2024-01-07T02:10:39;99397.31;;;3.03;100.00
63190;BME280;49286;44.460;26.114;2024-01-07T02:13:06;99364.91;;;2.70;100.00
63190;BME280;49286;44.460;26.114;2024-01-07T02:15:32;99376.97;;;2.70;100.00
63190;BME280;49286;44.460;26.114;2024-01-07T02:17:58;99437.84;;;3.00;100.00
63190;BME280;49286;44.460;26.114;2024-01-07T02:20:24;99375.16;;;2.64;100.00
63190;BME280;49286;44.460;26.114;2024-01-07T02:22:50;99373.34;;;2.59;100.00
63190;BME280;49286;44.460;26.114;2024-01-07T02:25:17;99454.25;;;2.99;100.00
63190;BME280;49286;44.460;26.114;2024-01-07T02:27:44;99361.78;;;2.35;100.00
63190;BME280;49286;44.460;26.114;2024-01-07T02:30:09;99462.78;;;2.91;100.00
63190;BME280;49286;44.460;26.114;2024-01-07T02:32:37;99375.75;;;2.46;100.00
63190;BME280;49286;44.460;26.114;2024-01-07T02:35:04;99466.66;;;3.20;100.00
63190;BME280;49286;44.460;26.114;2024-01-07T02:37:29;99440.34;;;2.92;100.00
63190;BME280;49286;44.460;26.114;2024-01-07T02:39:55;99366.53;;;2.62;100.00
63190;BME280;49286;44.460;26.114;2024-01-07T02:42:20;99380.56;;;2.80;100.00
63190;BME280;49286;44.460;26.114;2024-01-07T02:44:46;99458.13;;;3.27;100.00
63190;BME280;49286;44.460;26.114;2024-01-07T02:47:11;99445.97;;;3.24;100.00
63190;BME280;49286;44.460;26.114;2024-01-07T02:49:37;99437.13;;;3.07;100.00
63190;BME280;49286;44.460;26.114;2024-01-07T02:52:02;99360.44;;;2.60;100.00
63190;BME280;49286;44.460;26.114;2024-01-07T02:54:28;99430.13;;;3.03;100.00
63190;BME280;49286;44.460;26.114;2024-01-07T02:56:54;99420.47;;;2.92;100.00
63190;BME280;49286;44.460;26.114;2024-01-07T02:59:20;99350.88;;;2.56;100.00
63190;BME280;49286;44.460;26.114;2024-01-07T03:01:45;99418.78;;;2.93;100.00
63190;BME280;49286;44.460;26.114;2024-01-07T03:04:13;99343.06;;;2.53;100.00
63190;BME280;49286;44.460;26.114;2024-01-07T03:06:40;99345.81;;;2.62;100.00
63190;BME280;49286;44.460;26.114;2024-01-07T03:09:06;99441.63;;;3.22;100.00
63190;BME280;49286;44.460;26.114;2024-01-07T03:11:33;99446.06;;;3.29;100.00
63190;BME280;49286;44.460;26.114;2024-01-07T03:13:59;99328.59;;;2.69;100.00
63190;BME280;49286;44.460;26.114;2024-01-07T03:16:25;99438.13;;;3.18;100.00
63190;BME280;49286;44.460;26.114;2024-01-07T03:18:51;99362.47;;;2.83;100.00
63190;BME280;49286;44.460;26.114;2024-01-07T03:21:26;99391.25;;;3.01;100.00
63190;BME280;49286;44.460;26.114;2024-01-07T03:23:51;99391.91;;;2.88;100.00
63190;BME280;49286;44.460;26.114;2024-01-07T03:26:19;99358.09;;;2.77;100.00
63190;BME280;49286;44.460;26.114;2024-01-07T03:28:45;99451.13;;;3.21;100.00
63190;BME280;49286;44.460;26.114;2024-01-07T03:31:13;99452.09;;;3.29;100.00
63190;BME280;49286;44.460;26.114;2024-01-07T03:33:40;99378.16;;;2.92;100.00
63190;BME280;49286;44.460;26.114;2024-01-07T03:36:13;99366.94;;;2.91;100.00
63190;BME280;49286;44.460;26.114;2024-01-07T03:38:40;99442.66;;;3.34;100.00
63190;BME280;49286;44.460;26.114;2024-01-07T03:41:06;99383.47;;;3.01;100.00
63190;BME280;49286;44.460;26.114;2024-01-07T03:43:32;99343.44;;;2.79;100.00
63190;BME280;49286;44.460;26.114;2024-01-07T03:45:58;99399.22;;;3.16;100.00
63190;BME280;49286;44.460;26.114;2024-01-07T03:48:23;99336.78;;;3.00;100.00
63190;BME280;49286;44.460;26.114;2024-01-07T03:50:49;99340.38;;;3.08;100.00
63190;BME280;49286;44.460;26.114;2024-01-07T03:53:15;99389.25;;;3.49;100.00
63190;BME280;49286;44.460;26.114;2024-01-07T03:55:40;99410.94;;;3.55;100.00
63190;BME280;49286;44.460;26.114;2024-01-07T03:58:06;99328.22;;;3.02;100.00
63190;BME280;49286;44.460;26.114;2024-01-07T04:00:33;99383.03;;;3.33;100.00
63190;BME280;49286;44.460;26.114;2024-01-07T04:02:58;99325.72;;;3.10;100.00
63190;BME280;49286;44.460;26.114;2024-01-07T04:05:24;99329.25;;;3.16;100.00
63190;BME280;49286;44.460;26.114;2024-01-07T04:07:49;99306.72;;;3.09;100.00
63190;BME280;49286;44.460;26.114;2024-01-07T04:10:18;99403.28;;;3.63;100.00
63190;BME280;49286;44.460;26.114;2024-01-07T04:12:44;99426.84;;;3.86;100.00
63190;BME280;49286;44.460;26.114;2024-01-07T04:15:13;99427.00;;;4.00;100.00
63190;BME280;49286;44.460;26.114;2024-01-07T04:17:38;99433.09;;;4.02;100.00
63190;BME280;49286;44.460;26.114;2024-01-07T04:20:06;99406.00;;;3.75;100.00
63190;BME280;49286;44.460;26.114;2024-01-07T04:22:31;99435.00;;;4.20;100.00
63190;BME280;49286;44.460;26.114;2024-01-07T04:24:57;99412.31;;;3.99;100.00
63190;BME280;49286;44.460;26.114;2024-01-07T04:27:23;99421.88;;;4.03;100.00
63190;BME280;49286;44.460;26.114;2024-01-07T04:29:50;99358.47;;;3.78;100.00
63190;BME280;49286;44.460;26.114;2024-01-07T04:32:15;99420.31;;;4.23;100.00
63190;BME280;49286;44.460;26.114;2024-01-07T04:34:41;99325.59;;;3.78;100.00
63190;BME280;49286;44.460;26.114;2024-01-07T04:37:07;99345.69;;;3.99;100.00
63190;BME280;49286;44.460;26.114;2024-01-07T04:39:32;99390.88;;;4.23;100.00
63190;BME280;49286;44.460;26.114;2024-01-07T04:41:58;99356.19;;;4.10;100.00
63190;BME280;49286;44.460;26.114;2024-01-07T04:44:23;99452.69;;;4.61;100.00
63190;BME280;49286;44.460;26.114;2024-01-07T04:46:49;99329.31;;;4.05;100.00
63190;BME280;49286;44.460;26.114;2024-01-07T04:49:16;99378.97;;;4.45;100.00
63190;BME280;49286;44.460;26.114;2024-01-07T04:51:42;99412.78;;;4.50;100.00
63190;BME280;49286;44.460;26.114;2024-01-07T04:54:07;99337.81;;;3.89;100.00
63190;BME280;49286;44.460;26.114;2024-01-07T04:56:33;99369.34;;;4.35;100.00
63190;BME280;49286;44.460;26.114;2024-01-07T04:58:59;99273.56;;;3.62;100.00
63190;BME280;49286;44.460;26.114;2024-01-07T05:01:24;99333.78;;;4.21;100.00
63190;BME280;49286;44.460;26.114;2024-01-07T05:03:50;99434.56;;;4.70;100.00
63190;BME280;49286;44.460;26.114;2024-01-07T05:06:16;99419.94;;;4.81;100.00
63190;BME280;49286;44.460;26.114;2024-01-07T05:08:42;99288.69;;;4.10;100.00
63190;BME280;49286;44.460;26.114;2024-01-07T05:11:07;99441.78;;;5.08;100.00
63190;BME280;49286;44.460;26.114;2024-01-07T05:13:33;99328.69;;;4.40;100.00
63190;BME280;49286;44.460;26.114;2024-01-07T05:15:59;99301.69;;;4.16;100.00
63190;BME280;49286;44.460;26.114;2024-01-07T05:18:25;99311.25;;;4.17;100.00
63190;BME280;49286;44.460;26.114;2024-01-07T05:20:51;99348.59;;;4.36;100.00
63190;BME280;49286;44.460;26.114;2024-01-07T05:23:18;99396.59;;;4.91;100.00
63190;BME280;49286;44.460;26.114;2024-01-07T05:25:43;99416.59;;;5.01;100.00
63190;BME280;49286;44.460;26.114;2024-01-07T05:28:10;99344.47;;;4.64;100.00
63190;BME280;49286;44.460;26.114;2024-01-07T05:30:36;99391.50;;;5.04;100.00
63190;BME280;49286;44.460;26.114;2024-01-07T05:33:01;99319.34;;;4.62;100.00
63190;BME280;49286;44.460;26.114;2024-01-07T05:35:27;99399.28;;;5.04;100.00
63190;BME280;49286;44.460;26.114;2024-01-07T05:37:52;99295.91;;;4.56;100.00
63190;BME280;49286;44.460;26.114;2024-01-07T05:40:18;99386.31;;;5.09;100.00
63190;BME280;49286;44.460;26.114;2024-01-07T05:42:44;99327.00;;;4.43;100.00
63190;BME280;49286;44.460;26.114;2024-01-07T05:45:09;99274.72;;;3.97;100.00
63190;BME280;49286;44.460;26.114;2024-01-07T05:47:35;99233.19;;;3.94;100.00
63190;BME280;49286;44.460;26.114;2024-01-07T05:50:00;99386.19;;;4.86;100.00
63190;BME280;49286;44.460;26.114;2024-01-07T05:52:27;99372.31;;;4.82;100.00
63190;BME280;49286;44.460;26.114;2024-01-07T05:54:53;99287.16;;;4.41;100.00
63190;BME280;49286;44.460;26.114;2024-01-07T05:57:18;99300.19;;;4.49;100.00
63190;BME280;49286;44.460;26.114;2024-01-07T05:59:45;99258.44;;;4.18;100.00
63190;BME280;49286;44.460;26.114;2024-01-07T06:02:10;99365.44;;;4.98;100.00
63190;BME280;49286;44.460;26.114;2024-01-07T06:04:39;99285.56;;;4.59;100.00
63190;BME280;49286;44.460;26.114;2024-01-07T06:07:05;99261.25;;;4.48;100.00
63190;BME280;49286;44.460;26.114;2024-01-07T06:09:30;99222.97;;;4.20;100.00
63190;BME280;49286;44.460;26.114;2024-01-07T06:11:56;99348.09;;;4.90;100.00
63190;BME280;49286;44.460;26.114;2024-01-07T06:14:24;99358.59;;;5.08;100.00
63190;BME280;49286;44.460;26.114;2024-01-07T06:16:50;99263.06;;;4.62;100.00
63190;BME280;49286;44.460;26.114;2024-01-07T06:19:18;99289.97;;;4.71;100.00
63190;BME280;49286;44.460;26.114;2024-01-07T06:21:44;99229.13;;;4.33;100.00
63190;BME280;49286;44.460;26.114;2024-01-07T06:24:10;99340.41;;;5.16;100.00
63190;BME280;49286;44.460;26.114;2024-01-07T06:26:36;99321.34;;;5.11;100.00
63190;BME280;49286;44.460;26.114;2024-01-07T06:29:02;99237.03;;;4.55;100.00
63190;BME280;49286;44.460;26.114;2024-01-07T06:31:27;99323.97;;;5.15;100.00
63190;BME280;49286;44.460;26.114;2024-01-07T06:33:53;99354.38;;;5.36;100.00
63190;BME280;49286;44.460;26.114;2024-01-07T06:36:21;99323.97;;;5.23;100.00
63190;BME280;49286;44.460;26.114;2024-01-07T06:38:47;99326.53;;;5.17;100.00
63190;BME280;49286;44.460;26.114;2024-01-07T06:41:13;99225.88;;;4.76;100.00
63190;BME280;49286;44.460;26.114;2024-01-07T06:43:39;99324.03;;;5.37;100.00
63190;BME280;49286;44.460;26.114;2024-01-07T06:46:05;99350.97;;;5.56;100.00
63190;BME280;49286;44.460;26.114;2024-01-07T06:48:30;99330.16;;;5.54;100.00
63190;BME280;49286;44.460;26.114;2024-01-07T06:50:57;99352.69;;;5.57;100.00
63190;BME280;49286;44.460;26.114;2024-01-07T06:53:22;99316.25;;;5.47;100.00
63190;BME280;49286;44.460;26.114;2024-01-07T06:55:48;99348.38;;;5.60;100.00
63190;BME280;49286;44.460;26.114;2024-01-07T06:58:13;99267.56;;;5.05;100.00
63190;BME280;49286;44.460;26.114;2024-01-07T07:00:39;99245.88;;;4.97;100.00
63190;BME280;49286;44.460;26.114;2024-01-07T07:03:05;99317.06;;;5.33;100.00
63190;BME280;49286;44.460;26.114;2024-01-07T07:05:33;99340.56;;;5.59;100.00
63190;BME280;49286;44.460;26.114;2024-01-07T07:07:58;99233.72;;;4.96;100.00
63190;BME280;49286;44.460;26.114;2024-01-07T07:10:24;99239.88;;;5.13;100.00
63190;BME280;49286;44.460;26.114;2024-01-07T07:12:50;99270.22;;;5.20;100.00
63190;BME280;49286;44.460;26.114;2024-01-07T07:15:16;99257.22;;;5.16;100.00
63190;BME280;49286;44.460;26.114;2024-01-07T07:17:42;99319.75;;;5.63;100.00
63190;BME280;49286;44.460;26.114;2024-01-07T07:20:08;99313.69;;;5.60;100.00
63190;BME280;49286;44.460;26.114;2024-01-07T07:22:34;99279.84;;;5.46;100.00
63190;BME280;49286;44.460;26.114;2024-01-07T07:24:59;99285.03;;;5.37;100.00
63190;BME280;49286;44.460;26.114;2024-01-07T07:27:25;99219.88;;;4.91;100.00
63190;BME280;49286;44.460;26.114;2024-01-07T07:29:50;99319.69;;;5.36;100.00
63190;BME280;49286;44.460;26.114;2024-01-07T07:32:16;99327.53;;;5.49;100.00
63190;BME280;49286;44.460;26.114;2024-01-07T07:34:41;99337.97;;;5.59;100.00
63190;BME280;49286;44.460;26.114;2024-01-07T07:37:07;99242.41;;;5.01;100.00
63190;BME280;49286;44.460;26.114;2024-01-07T07:39:32;99238.06;;;4.98;100.00
63190;BME280;49286;44.460;26.114;2024-01-07T07:41:58;99260.69;;;5.16;100.00
63190;BME280;49286;44.460;26.114;2024-01-07T07:44:24;99356.22;;;5.76;100.00
63190;BME280;49286;44.460;26.114;2024-01-07T07:46:49;99340.50;;;5.40;100.00
63190;BME280;49286;44.460;26.114;2024-01-07T07:49:15;99356.16;;;5.54;100.00
63190;BME280;49286;44.460;26.114;2024-01-07T07:51:43;99364.81;;;5.47;100.00
63190;BME280;49286;44.460;26.114;2024-01-07T07:54:08;99284.03;;;4.99;100.00
63190;BME280;49286;44.460;26.114;2024-01-07T07:56:34;99293.53;;;5.00;100.00
63190;BME280;49286;44.460;26.114;2024-01-07T07:59:01;99374.34;;;5.46;100.00
63190;BME280;49286;44.460;26.114;2024-01-07T08:01:27;99392.59;;;5.56;100.00
63190;BME280;49286;44.460;26.114;2024-01-07T08:03:52;99431.63;;;5.56;100.00
63190;BME280;49286;44.460;26.114;2024-01-07T08:06:18;99399.41;;;5.20;100.00
63190;BME280;49286;44.460;26.114;2024-01-07T08:08:43;99394.13;;;5.09;100.00
63190;BME280;49286;44.460;26.114;2024-01-07T08:11:09;99490.63;;;5.61;100.00
63190;BME280;49286;44.460;26.114;2024-01-07T08:13:35;99523.63;;;5.68;100.00
63190;BME280;49286;44.460;26.114;2024-01-07T08:16:01;99544.53;;;5.82;100.00
63190;BME280;49286;44.460;26.114;2024-01-07T08:18:27;99567.09;;;5.85;100.00
63190;BME280;49286;44.460;26.114;2024-01-07T08:20:54;99581.03;;;5.91;100.00
63190;BME280;49286;44.460;26.114;2024-01-07T08:23:19;99515.69;;;5.45;100.00
63190;BME280;49286;44.460;26.114;2024-01-07T08:25:46;99540.00;;;5.46;100.00
63190;BME280;49286;44.460;26.114;2024-01-07T08:28:11;99632.16;;;5.79;100.00
63190;BME280;49286;44.460;26.114;2024-01-07T08:30:37;99557.97;;;5.17;100.00
63190;BME280;49286;44.460;26.114;2024-01-07T08:33:03;99666.06;;;5.89;100.00
63190;BME280;49286;44.460;26.114;2024-01-07T08:35:28;99666.88;;;5.79;100.00
63190;BME280;49286;44.460;26.114;2024-01-07T08:37:54;99605.84;;;5.39;100.00
63190;BME280;49286;44.460;26.114;2024-01-07T08:40:19;99746.97;;;6.09;100.00
63190;BME280;49286;44.460;26.114;2024-01-07T08:42:45;99741.53;;;5.85;100.00
63190;BME280;49286;44.460;26.114;2024-01-07T08:45:11;99759.13;;;6.12;100.00
63190;BME280;49286;44.460;26.114;2024-01-07T08:47:37;99784.41;;;6.21;100.00
63190;BME280;49286;44.460;26.114;2024-01-07T08:50:02;99727.66;;;5.86;100.00
63190;BME280;49286;44.460;26.114;2024-01-07T08:52:28;99791.13;;;5.96;100.00
63190;BME280;49286;44.460;26.114;2024-01-07T08:54:54;99785.06;;;5.95;100.00
63190;BME280;49286;44.460;26.114;2024-01-07T08:57:20;99784.91;;;5.84;100.00
63190;BME280;49286;44.460;26.114;2024-01-07T08:59:47;99743.19;;;5.74;100.00
63190;BME280;49286;44.460;26.114;2024-01-07T09:02:13;99756.13;;;5.66;100.00
63190;BME280;49286;44.460;26.114;2024-01-07T09:04:39;99797.22;;;5.99;100.00
63190;BME280;49286;44.460;26.114;2024-01-07T09:07:04;99860.84;;;6.27;100.00
63190;BME280;49286;44.460;26.114;2024-01-07T09:09:30;99792.78;;;5.92;100.00
63190;BME280;49286;44.460;26.114;2024-01-07T09:11:55;99797.09;;;5.87;100.00
63190;BME280;49286;44.460;26.114;2024-01-07T09:14:22;99866.19;;;6.46;100.00
63190;BME280;49286;44.460;26.114;2024-01-07T09:16:50;99851.16;;;6.09;100.00
63190;BME280;49286;44.460;26.114;2024-01-07T09:19:15;99854.81;;;6.30;100.00
63190;BME280;49286;44.460;26.114;2024-01-07T09:21:41;99781.50;;;5.88;100.00
63190;BME280;49286;44.460;26.114;2024-01-07T09:24:07;99823.34;;;6.07;100.00
63190;BME280;49286;44.460;26.114;2024-01-07T09:26:33;99804.06;;;5.88;100.00
63190;BME280;49286;44.460;26.114;2024-01-07T09:28:59;99707.31;;;5.42;100.00
63190;BME280;49286;44.460;26.114;2024-01-07T09:31:24;99792.78;;;5.92;100.00
63190;BME280;49286;44.460;26.114;2024-01-07T09:33:50;99829.53;;;6.18;100.00
63190;BME280;49286;44.460;26.114;2024-01-07T09:36:15;99812.94;;;6.10;100.00
63190;BME280;49286;44.460;26.114;2024-01-07T09:38:41;99843.47;;;6.23;100.00
63190;BME280;49286;44.460;26.114;2024-01-07T09:41:07;99732.72;;;5.67;100.00
63190;BME280;49286;44.460;26.114;2024-01-07T09:43:33;99842.59;;;6.24;100.00
63190;BME280;49286;44.460;26.114;2024-01-07T09:45:59;99847.03;;;6.34;100.00
63190;BME280;49286;44.460;26.114;2024-01-07T09:48:25;99840.91;;;6.34;100.00
63190;BME280;49286;44.460;26.114;2024-01-07T09:50:51;99841.03;;;6.46;100.00
63190;BME280;49286;44.460;26.114;2024-01-07T09:53:19;99745.94;;;5.90;100.00
63190;BME280;49286;44.460;26.114;2024-01-07T09:58:35;99729.50;;;5.96;100.00
63190;BME280;49286;44.460;26.114;2024-01-07T10:01:00;99729.59;;;6.10;100.00
63190;BME280;49286;44.460;26.114;2024-01-07T10:03:26;99790.75;;;6.63;100.00
63190;BME280;49286;44.460;26.114;2024-01-07T10:05:52;99654.03;;;6.01;100.00
63190;BME280;49286;44.460;26.114;2024-01-07T10:08:17;99569.63;;;5.69;100.00
63190;BME280;49286;44.460;26.114;2024-01-07T10:10:43;99582.03;;;6.12;100.00
63190;BME280;49286;44.460;26.114;2024-01-07T10:13:09;99580.41;;;6.48;100.00
63190;BME280;49286;44.460;26.114;2024-01-07T10:15:34;99575.28;;;6.68;100.00
63190;BME280;49286;44.460;26.114;2024-01-07T10:18:04;99536.13;;;6.52;100.00
63190;BME280;49286;44.460;26.114;2024-01-07T10:20:34;99446.63;;;6.23;100.00
63190;BME280;49286;44.460;26.114;2024-01-07T10:23:01;99497.91;;;6.58;100.00
63190;BME280;49286;44.460;26.114;2024-01-07T10:25:31;99389.31;;;6.26;100.00
63190;BME280;49286;44.460;26.114;2024-01-07T10:28:01;99459.69;;;6.81;100.00
63190;BME280;49286;44.460;26.114;2024-01-07T10:30:28;99437.97;;;6.87;100.00
63190;BME280;49286;44.460;26.114;2024-01-07T10:32:59;99391.06;;;6.58;100.00
63190;BME280;49286;44.460;26.114;2024-01-07T10:35:29;99387.56;;;6.65;100.00
63190;BME280;49286;44.460;26.114;2024-01-07T10:37:57;99361.53;;;6.62;100.00
63190;BME280;49286;44.460;26.114;2024-01-07T10:40:23;99354.56;;;6.44;100.00
63190;BME280;49286;44.460;26.114;2024-01-07T10:42:51;99378.91;;;6.70;100.00
63190;BME280;49286;44.460;26.114;2024-01-07T10:45:17;99337.22;;;6.49;100.00
63190;BME280;49286;44.460;26.114;2024-01-07T10:47:48;99242.63;;;6.07;100.00
63190;BME280;49286;44.460;26.114;2024-01-07T10:50:16;99321.56;;;6.63;100.00
63190;BME280;49286;44.460;26.114;2024-01-07T10:52:48;99263.44;;;6.11;100.00
63190;BME280;49286;44.460;26.114;2024-01-07T10:55:17;99331.97;;;6.60;100.00
63190;BME280;49286;44.460;26.114;2024-01-07T10:57:47;99331.13;;;6.64;100.00
63190;BME280;49286;44.460;26.114;2024-01-07T11:00:16;99326.78;;;6.52;100.00
63190;BME280;49286;44.460;26.114;2024-01-07T11:03:18;99341.53;;;6.74;100.00
63190;BME280;49286;44.460;26.114;2024-01-07T11:05:59;99334.59;;;6.52;100.00
63190;BME280;49286;44.460;26.114;2024-01-07T11:08:39;99252.13;;;6.17;100.00
63190;BME280;49286;44.460;26.114;2024-01-07T11:11:16;99349.34;;;6.74;100.00
63190;BME280;49286;44.460;26.114;2024-01-07T11:13:43;99339.78;;;6.73;100.00
63190;BME280;49286;44.460;26.114;2024-01-07T11:16:10;99277.28;;;6.44;100.00
63190;BME280;49286;44.460;26.114;2024-01-07T11:18:45;99331.09;;;6.62;100.00
63190;BME280;49286;44.460;26.114;2024-01-07T11:21:20;99230.44;;;5.86;100.00
63190;BME280;49286;44.460;26.114;2024-01-07T11:23:48;99331.13;;;6.59;100.00
63190;BME280;49286;44.460;26.114;2024-01-07T11:26:13;99286.88;;;6.28;100.00
63190;BME280;49286;44.460;26.114;2024-01-07T11:28:50;99276.44;;;6.28;100.00
63190;BME280;49286;44.460;26.114;2024-01-07T11:31:17;99248.66;;;6.24;100.00
63190;BME280;49286;44.460;26.114;2024-01-07T11:33:45;99326.72;;;6.89;100.00
63190;BME280;49286;44.460;26.114;2024-01-07T11:36:14;99343.16;;;7.09;100.00
63190;BME280;49286;44.460;26.114;2024-01-07T11:41:10;99304.91;;;7.13;100.00
63190;BME280;49286;44.460;26.114;2024-01-07T11:43:36;99314.34;;;7.38;100.00
63190;BME280;49286;44.460;26.114;2024-01-07T11:46:02;99232.78;;;7.00;100.00
63190;BME280;49286;44.460;26.114;2024-01-07T11:48:28;99277.91;;;7.20;100.00
63190;BME280;49286;44.460;26.114;2024-01-07T11:50:53;99275.34;;;7.11;100.00
63190;BME280;49286;44.460;26.114;2024-01-07T11:53:19;99189.47;;;6.69;100.00
63190;BME280;49286;44.460;26.114;2024-01-07T11:55:45;99217.94;;;7.15;100.00
63190;BME280;49286;44.460;26.114;2024-01-07T11:58:11;99285.44;;;7.72;100.00
63190;BME280;49286;44.460;26.114;2024-01-07T12:00:37;99253.56;;;7.18;100.00
63190;BME280;49286;44.460;26.114;2024-01-07T12:03:03;99262.03;;;7.60;100.00
63190;BME280;49286;44.460;26.114;2024-01-07T12:05:29;99249.06;;;7.49;100.00
63190;BME280;49286;44.460;26.114;2024-01-07T12:07:55;99199.66;;;7.14;100.00
63190;BME280;49286;44.460;26.114;2024-01-07T12:10:23;99228.22;;;7.45;100.00
63190;BME280;49286;44.460;26.114;2024-01-07T12:12:49;99191.69;;;7.42;100.00
63190;BME280;49286;44.460;26.114;2024-01-07T12:15:16;99203.94;;;7.29;100.00
63190;BME280;49286;44.460;26.114;2024-01-07T12:17:42;99218.72;;;7.31;100.00
63190;BME280;49286;44.460;26.114;2024-01-07T12:20:08;99202.19;;;7.31;100.00
63190;BME280;49286;44.460;26.114;2024-01-07T12:22:38;99198.00;;;7.02;100.00
63190;BME280;49286;44.460;26.114;2024-01-07T12:25:05;99186.59;;;7.20;100.00
63190;BME280;49286;44.460;26.114;2024-01-07T12:27:32;99074.91;;;6.43;100.00
63190;BME280;49286;44.460;26.114;2024-01-07T12:29:58;99095.66;;;6.65;100.00
63190;BME280;49286;44.460;26.114;2024-01-07T12:32:30;99110.34;;;6.84;100.00
63190;BME280;49286;44.460;26.114;2024-01-07T12:35:00;99170.22;;;6.98;100.00
63190;BME280;49286;44.460;26.114;2024-01-07T12:37:30;99110.34;;;6.78;100.00
63190;BME280;49286;44.460;26.114;2024-01-07T12:39:55;99149.38;;;6.93;100.00
63190;BME280;49286;44.460;26.114;2024-01-07T12:42:21;99169.28;;;7.08;100.00
63190;BME280;49286;44.460;26.114;2024-01-07T12:44:48;99091.31;;;6.70;100.00
63190;BME280;49286;44.460;26.114;2024-01-07T12:47:14;99084.34;;;6.69;100.00
63190;BME280;49286;44.460;26.114;2024-01-07T12:49:40;99084.41;;;6.55;100.00
63190;BME280;49286;44.460;26.114;2024-01-07T12:52:05;99158.84;;;7.07;100.00